createdAt,value
2017-11-18T00:00:22.076Z,87.41
2017-11-18T00:01:02.601Z,87.41
2017-11-18T00:01:43.385Z,87.41
2017-11-18T00:02:23.963Z,87.41
2017-11-18T00:03:04.591Z,87.32
2017-11-18T00:03:45.114Z,87.41
2017-11-18T00:04:25.851Z,87.51
2017-11-18T00:05:06.439Z,87.7
2017-11-18T00:05:47.170Z,87.41
2017-11-18T00:06:27.708Z,87.7
2017-11-18T00:07:08.313Z,87.7
2017-11-18T00:07:48.835Z,87.98
2017-11-18T00:08:29.353Z,87.51
2017-11-18T00:09:09.925Z,87.89
2017-11-18T00:09:50.656Z,87.65
2017-11-18T00:10:31.138Z,87.51
2017-11-18T00:11:11.789Z,87.41
2017-11-18T00:11:52.395Z,87.32
2017-11-18T00:12:32.990Z,87.32
2017-11-18T00:13:13.492Z,87.32
2017-11-18T00:13:54.138Z,87.7
2017-11-18T00:14:34.700Z,87.32
2017-11-18T00:15:15.375Z,87.23
2017-11-18T00:15:56.471Z,87.51
2017-11-18T00:16:37.341Z,87.41
2017-11-18T00:17:17.894Z,87.23
2017-11-18T00:17:58.502Z,87.23
2017-11-18T00:18:39.084Z,87.51
2017-11-18T00:19:19.598Z,87.79
2017-11-18T00:20:00.140Z,87.79
2017-11-18T00:20:40.900Z,87.41
2017-11-18T00:21:21.383Z,87.46
2017-11-18T00:22:01.918Z,87.41
2017-11-18T00:22:42.459Z,87.41
2017-11-18T00:23:22.991Z,87.55
2017-11-18T00:24:03.713Z,87.74
2017-11-18T00:24:44.236Z,87.6
2017-11-18T00:25:24.764Z,87.51
2017-11-18T00:26:05.630Z,87.6
2017-11-18T00:26:47.081Z,87.84
2017-11-18T00:27:26.866Z,87.74
2017-11-18T00:28:07.376Z,87.55
2017-11-18T00:28:47.925Z,87.55
2017-11-18T00:29:28.427Z,87.27
2017-11-18T00:30:08.996Z,87.17
2017-11-18T00:30:49.579Z,86.79
2017-11-18T00:31:30.165Z,86.84
2017-11-18T00:32:10.716Z,87.27
2017-11-18T00:32:51.336Z,87.03
2017-11-18T00:33:31.888Z,87.32
2017-11-18T00:34:12.420Z,87.51
2017-11-18T00:34:52.959Z,87.36
2017-11-18T00:35:33.526Z,87.84
2017-11-18T00:36:14.902Z,87.93
2017-11-18T00:36:55.502Z,87.17
2017-11-18T00:37:36.109Z,87.36
2017-11-18T00:38:16.669Z,87.41
2017-11-18T00:38:57.213Z,87.84
2017-11-18T00:39:37.780Z,87.51
2017-11-18T00:40:18.410Z,87.55
2017-11-18T00:40:58.913Z,87.46
2017-11-18T00:41:39.426Z,87.46
2017-11-18T00:42:20.031Z,87.41
2017-11-18T00:43:00.502Z,87.51
2017-11-18T00:43:41.066Z,88.27
2017-11-18T00:44:21.720Z,88.18
2017-11-18T00:45:02.289Z,88.37
2017-11-18T00:45:42.809Z,88.46
2017-11-18T00:46:23.427Z,88.08
2017-11-18T00:47:03.927Z,88.27
2017-11-18T00:47:44.515Z,88.37
2017-11-18T00:48:25.438Z,88.08
2017-11-18T00:49:05.975Z,88.37
2017-11-18T00:49:47.243Z,88.37
2017-11-18T00:50:27.744Z,88.37
2017-11-18T00:51:08.277Z,88.27
2017-11-18T00:51:49.024Z,88.46
2017-11-18T00:52:29.581Z,88.27
2017-11-18T00:53:10.155Z,88.75
2017-11-18T00:53:50.600Z,88.46
2017-11-18T00:54:31.149Z,88.84
2017-11-18T00:55:11.681Z,88.56
2017-11-18T00:55:52.474Z,88.75
2017-11-18T00:56:33.014Z,88.65
2017-11-18T00:57:13.610Z,88.75
2017-11-18T00:57:54.114Z,88.65
2017-11-18T00:58:34.632Z,88.84
2017-11-18T00:59:15.216Z,88.75
2017-11-18T00:59:55.782Z,88.65
2017-11-18T01:00:36.988Z,88.84
2017-11-18T01:01:17.651Z,88.56
2017-11-18T01:01:58.191Z,88.27
2017-11-18T01:02:38.817Z,88.27
2017-11-18T01:03:19.264Z,88.37
2017-11-18T01:03:59.833Z,88.27
2017-11-18T01:04:40.454Z,88.46
2017-11-18T01:05:20.960Z,88.46
2017-11-18T01:06:01.540Z,88.46
2017-11-18T01:06:42.035Z,88.56
2017-11-18T01:07:22.602Z,88.46
2017-11-18T01:08:03.132Z,88.46
2017-11-18T01:08:43.715Z,88.08
2017-11-18T01:09:24.415Z,88.27
2017-11-18T01:10:04.975Z,88.18
2017-11-18T01:10:45.430Z,88.37
2017-11-18T01:11:25.979Z,87.89
2017-11-18T01:12:06.540Z,88.56
2017-11-18T01:12:47.015Z,88.46
2017-11-18T01:13:27.660Z,88.27
2017-11-18T01:14:08.330Z,88.56
2017-11-18T01:14:48.838Z,88.27
2017-11-18T01:15:29.430Z,88.27
2017-11-18T01:16:10.065Z,88.56
2017-11-18T01:16:50.550Z,88.27
2017-11-18T01:17:31.047Z,88.37
2017-11-18T01:18:11.640Z,88.27
2017-11-18T01:18:52.089Z,88.08
2017-11-18T01:19:32.681Z,88.37
2017-11-18T01:20:13.226Z,88.46
2017-11-18T01:20:53.730Z,88.46
2017-11-18T01:21:34.214Z,88.08
2017-11-18T01:22:14.824Z,87.7
2017-11-18T01:22:55.342Z,88.27
2017-11-18T01:23:35.836Z,87.79
2017-11-18T01:24:16.413Z,87.89
2017-11-18T01:24:56.888Z,87.98
2017-11-18T01:25:37.431Z,88.27
2017-11-18T01:26:17.979Z,88.46
2017-11-18T01:26:58.693Z,88.18
2017-11-18T01:27:39.276Z,88.18
2017-11-18T01:28:19.894Z,88.93
2017-11-18T01:29:00.501Z,88.56
2017-11-18T01:29:41.089Z,88.46
2017-11-18T01:30:21.654Z,88.37
2017-11-18T01:31:02.152Z,88.46
2017-11-18T01:31:42.689Z,88.46
2017-11-18T01:32:23.263Z,88.37
2017-11-18T01:33:03.898Z,87.41
2017-11-18T01:33:44.431Z,87.98
2017-11-18T01:34:24.983Z,87.98
2017-11-18T01:35:05.572Z,87.7
2017-11-18T01:35:46.158Z,87.98
2017-11-18T01:36:26.716Z,87.65
2017-11-18T01:37:07.292Z,87.79
2017-11-18T01:37:47.843Z,88.18
2017-11-18T01:38:28.380Z,87.7
2017-11-18T01:39:08.966Z,87.46
2017-11-18T01:39:49.451Z,87.41
2017-11-18T01:40:29.957Z,87.41
2017-11-18T01:41:10.525Z,87.55
2017-11-18T01:41:51.051Z,87.41
2017-11-18T01:42:31.602Z,87.84
2017-11-18T01:43:12.162Z,87.36
2017-11-18T01:43:52.713Z,87.55
2017-11-18T01:44:33.270Z,87.89
2017-11-18T01:45:13.784Z,87.6
2017-11-18T01:45:54.558Z,87.32
2017-11-18T01:46:35.131Z,87.7
2017-11-18T01:47:15.618Z,87.6
2017-11-18T01:47:56.160Z,87.32
2017-11-18T01:48:36.765Z,87.41
2017-11-18T01:49:17.230Z,87.41
2017-11-18T01:49:57.830Z,87.32
2017-11-18T01:50:38.382Z,87.65
2017-11-18T01:51:18.965Z,86.88
2017-11-18T01:51:59.724Z,87.13
2017-11-18T01:52:40.272Z,87.51
2017-11-18T01:53:20.782Z,87.51
2017-11-18T01:54:01.306Z,87.36
2017-11-18T01:54:41.841Z,87.55
2017-11-18T01:55:22.424Z,87.51
2017-11-18T01:56:02.986Z,87.36
2017-11-18T01:56:43.676Z,87.03
2017-11-18T01:57:24.201Z,87.55
2017-11-18T01:58:04.784Z,87.27
2017-11-18T01:58:45.296Z,87.84
2017-11-18T01:59:25.834Z,87.55
2017-11-18T02:00:06.386Z,87.51
2017-11-18T02:00:46.936Z,87.74
2017-11-18T02:01:27.491Z,87.74
2017-11-18T02:02:07.998Z,87.51
2017-11-18T02:02:48.532Z,87.41
2017-11-18T02:03:29.086Z,87.55
2017-11-18T02:04:09.600Z,87.32
2017-11-18T02:04:50.257Z,87.6
2017-11-18T02:05:30.775Z,87.55
2017-11-18T02:06:11.356Z,87.27
2017-11-18T02:06:51.935Z,87.36
2017-11-18T02:07:32.514Z,87.6
2017-11-18T02:08:13.082Z,87.51
2017-11-18T02:08:53.523Z,87.46
2017-11-18T02:09:34.066Z,87.51
2017-11-18T02:10:14.614Z,87.41
2017-11-18T02:10:55.215Z,87.36
2017-11-18T02:11:35.795Z,87.46
2017-11-18T02:12:16.331Z,87.55
2017-11-18T02:12:56.884Z,87.27
2017-11-18T02:13:37.450Z,87.17
2017-11-18T02:14:18.181Z,87.84
2017-11-18T02:14:58.797Z,87.17
2017-11-18T02:15:39.318Z,87.51
2017-11-18T02:16:19.866Z,87.51
2017-11-18T02:17:00.372Z,87.32
2017-11-18T02:17:40.997Z,87.32
2017-11-18T02:18:21.550Z,87.6
2017-11-18T02:19:02.114Z,87.32
2017-11-18T02:19:42.664Z,87.32
2017-11-18T02:20:23.249Z,87.41
2017-11-18T02:21:03.780Z,87.6
2017-11-18T02:21:44.261Z,87.98
2017-11-18T02:22:24.804Z,88.18
2017-11-18T02:23:05.456Z,87.7
2017-11-18T02:23:46.022Z,88.37
2017-11-18T02:24:26.503Z,87.98
2017-11-18T02:25:07.092Z,88.75
2017-11-18T02:25:47.610Z,89.22
2017-11-18T02:26:28.253Z,89.22
2017-11-18T02:27:08.758Z,89.13
2017-11-18T02:27:49.289Z,88.75
2017-11-18T02:28:29.809Z,88.75
2017-11-18T02:29:10.389Z,88.65
2017-11-18T02:29:50.953Z,88.37
2017-11-18T02:30:31.634Z,88.46
2017-11-18T02:31:12.135Z,88.56
2017-11-18T02:31:52.688Z,88.37
2017-11-18T02:32:33.306Z,88.08
2017-11-18T02:33:13.844Z,88.27
2017-11-18T02:33:54.390Z,88.37
2017-11-18T02:34:34.901Z,88.56
2017-11-18T02:35:15.474Z,88.27
2017-11-18T02:35:55.975Z,88.27
2017-11-18T02:36:36.579Z,88.56
2017-11-18T02:37:17.121Z,88.37
2017-11-18T02:37:57.664Z,88.27
2017-11-18T02:38:38.160Z,88.56
2017-11-18T02:39:18.691Z,88.27
2017-11-18T02:39:59.237Z,88.37
2017-11-18T02:40:39.824Z,88.46
2017-11-18T02:41:20.426Z,89.03
2017-11-18T02:42:00.960Z,88.65
2017-11-18T02:42:41.512Z,88.84
2017-11-18T02:43:22.098Z,88.56
2017-11-18T02:44:02.628Z,88.93
2017-11-18T02:44:43.225Z,89.84
2017-11-18T02:45:23.788Z,89.84
2017-11-18T02:46:04.289Z,89.94
2017-11-18T02:46:44.833Z,90.75
2017-11-18T02:47:25.412Z,90.08
2017-11-18T02:48:05.972Z,89.79
2017-11-18T02:48:46.536Z,89.41
2017-11-18T02:49:27.142Z,90.13
2017-11-18T02:50:07.698Z,90.17
2017-11-18T02:50:48.254Z,90.7
2017-11-18T02:51:28.835Z,90.7
2017-11-18T02:52:09.355Z,90.89
2017-11-18T02:52:49.852Z,90.7
2017-11-18T02:53:30.441Z,90.7
2017-11-18T02:54:11.707Z,90.36
2017-11-18T02:54:52.522Z,90.17
2017-11-18T02:55:33.116Z,89.79
2017-11-18T02:56:13.678Z,89.89
2017-11-18T02:56:54.149Z,90.17
2017-11-18T03:00:14.901Z,89.61
2017-11-18T03:00:55.443Z,89.32
2017-11-18T03:01:35.952Z,89.61
2017-11-18T03:02:16.561Z,89.98
2017-11-18T03:02:57.095Z,89.84
2017-11-18T03:03:37.587Z,89.65
2017-11-18T03:04:18.151Z,90.03
2017-11-18T03:04:58.733Z,90.32
2017-11-18T03:05:39.250Z,90.7
2017-11-18T03:06:19.836Z,90.22
2017-11-18T03:07:00.357Z,90.32
2017-11-18T03:07:40.951Z,90.7
2017-11-18T03:08:21.532Z,90.56
2017-11-18T03:09:02.092Z,90.75
2017-11-18T03:09:42.574Z,90.75
2017-11-18T03:10:23.208Z,90.65
2017-11-18T03:11:03.751Z,90.65
2017-11-18T03:11:44.249Z,90.17
2017-11-18T03:12:24.793Z,90.36
2017-11-18T03:13:05.379Z,89.7
2017-11-18T03:13:46.053Z,90.36
2017-11-18T03:14:26.578Z,90.7
2017-11-18T03:15:07.148Z,90.65
2017-11-18T03:15:47.898Z,90.7
2017-11-18T03:16:28.492Z,90.7
2017-11-18T03:17:09.010Z,90.8
2017-11-18T03:17:49.522Z,91.08
2017-11-18T03:18:30.048Z,90.99
2017-11-18T03:19:10.563Z,90.7
2017-11-18T03:19:51.077Z,91.08
2017-11-18T03:20:31.652Z,90.94
2017-11-18T03:21:12.254Z,90.99
2017-11-18T03:21:52.743Z,90.94
2017-11-18T03:22:33.310Z,91.03
2017-11-18T03:23:13.822Z,90.94
2017-11-18T03:23:54.322Z,90.65
2017-11-18T03:24:34.880Z,90.84
2017-11-18T03:25:15.451Z,91.13
2017-11-18T03:25:55.971Z,90.75
2017-11-18T03:26:36.559Z,90.56
2017-11-18T03:27:17.009Z,90.89
2017-11-18T03:27:57.587Z,90.89
2017-11-18T03:28:38.131Z,91.08
2017-11-18T03:29:18.681Z,91.03
2017-11-18T03:29:59.260Z,91.13
2017-11-18T03:30:39.868Z,90.84
2017-11-18T03:31:20.400Z,91.31
2017-11-18T03:32:00.963Z,91.41
2017-11-18T03:32:41.491Z,90.7
2017-11-18T03:33:22.113Z,91.08
2017-11-18T03:34:02.582Z,90.89
2017-11-18T03:34:43.224Z,91.27
2017-11-18T03:35:23.764Z,91.37
2017-11-18T03:36:04.361Z,91.17
2017-11-18T03:36:44.903Z,91.37
2017-11-18T03:37:25.414Z,91.75
2017-11-18T03:38:05.888Z,91.65
2017-11-18T03:38:46.480Z,91.46
2017-11-18T03:39:27.009Z,91.22
2017-11-18T03:40:07.618Z,90.61
2017-11-18T03:40:48.148Z,91.27
2017-11-18T03:41:28.717Z,91.13
2017-11-18T03:42:09.336Z,91.65
2017-11-18T03:42:49.823Z,90.99
2017-11-18T03:43:30.374Z,91.31
2017-11-18T03:44:10.902Z,91.13
2017-11-18T03:44:51.447Z,91.31
2017-11-18T03:45:32.069Z,91.13
2017-11-18T03:46:12.658Z,91.03
2017-11-18T03:46:53.137Z,90.94
2017-11-18T03:47:33.675Z,91.13
2017-11-18T03:48:14.255Z,90.84
2017-11-18T03:48:54.835Z,90.46
2017-11-18T03:49:35.548Z,90.46
2017-11-18T03:50:16.097Z,90.56
2017-11-18T03:50:56.651Z,90.65
2017-11-18T03:51:37.400Z,90.36
2017-11-18T03:52:17.969Z,91.41
2017-11-18T03:52:58.498Z,90.94
2017-11-18T03:53:39.483Z,90.75
2017-11-18T03:54:19.993Z,90.94
2017-11-18T03:55:00.598Z,90.46
2017-11-18T03:55:41.131Z,90.75
2017-11-18T03:56:21.671Z,91.03
2017-11-18T03:57:02.186Z,91.03
2017-11-18T03:57:42.759Z,91.13
2017-11-18T03:58:23.296Z,91.13
2017-11-18T03:59:03.910Z,91.13
2017-11-18T03:59:44.630Z,90.94
2017-11-18T04:00:25.220Z,90.46
2017-11-18T04:01:05.687Z,90.46
2017-11-18T04:01:46.270Z,90.94
2017-11-18T04:02:26.812Z,90.94
2017-11-18T04:03:07.360Z,90.94
2017-11-18T04:03:47.905Z,90.75
2017-11-18T04:04:28.466Z,90.75
2017-11-18T04:05:08.996Z,90.84
2017-11-18T04:05:49.545Z,90.65
2017-11-18T04:06:30.130Z,91.03
2017-11-18T04:07:10.633Z,91.03
2017-11-18T04:07:51.338Z,90.56
2017-11-18T04:08:31.853Z,90.65
2017-11-18T04:09:12.375Z,91.03
2017-11-18T04:09:52.920Z,91.27
2017-11-18T04:10:33.430Z,91.17
2017-11-18T04:11:13.970Z,91.46
2017-11-18T04:11:54.603Z,91.27
2017-11-18T04:12:35.119Z,91.75
2017-11-18T04:13:15.670Z,91.51
2017-11-18T04:13:56.238Z,91.51
2017-11-18T04:14:36.781Z,91.22
2017-11-18T04:15:17.334Z,90.75
2017-11-18T04:15:57.946Z,91.13
2017-11-18T04:16:38.430Z,91.08
2017-11-18T04:17:18.977Z,91.6
2017-11-18T04:17:59.553Z,91.13
2017-11-18T04:18:40.114Z,91.41
2017-11-18T04:19:20.595Z,90.94
2017-11-18T04:20:01.120Z,91.03
2017-11-18T04:20:41.722Z,90.75
2017-11-18T04:21:22.185Z,90.94
2017-11-18T04:22:02.951Z,90.94
2017-11-18T04:22:43.498Z,90.75
2017-11-18T04:23:23.980Z,90.75
2017-11-18T04:24:04.545Z,90.46
2017-11-18T04:24:45.057Z,90.65
2017-11-18T04:25:25.641Z,91.03
2017-11-18T04:26:06.241Z,90.56
2017-11-18T04:26:46.785Z,90.94
2017-11-18T04:27:27.453Z,90.94
2017-11-18T04:28:07.964Z,91.13
2017-11-18T04:28:48.581Z,90.84
2017-11-18T04:29:29.168Z,91.03
2017-11-18T04:30:09.641Z,91.13
2017-11-18T04:30:50.306Z,91.13
2017-11-18T04:31:30.906Z,90.75
2017-11-18T04:32:11.406Z,91.03
2017-11-18T04:32:52.025Z,90.56
2017-11-18T04:33:32.632Z,91.03
2017-11-18T04:34:13.129Z,91.03
2017-11-18T04:34:53.642Z,90.75
2017-11-18T04:35:34.187Z,90.84
2017-11-18T04:36:14.705Z,91.03
2017-11-18T04:36:55.216Z,91.03
2017-11-18T04:37:35.793Z,91.13
2017-11-18T04:38:16.309Z,91.41
2017-11-18T04:38:56.975Z,91.03
2017-11-18T04:39:37.481Z,90.56
2017-11-18T04:40:18.041Z,91.03
2017-11-18T04:40:58.515Z,91.03
2017-11-18T04:41:39.085Z,90.94
2017-11-18T04:42:19.621Z,90.94
2017-11-18T04:43:00.140Z,90.56
2017-11-18T04:43:40.730Z,91.03
2017-11-18T04:44:21.267Z,91.31
2017-11-18T04:45:01.835Z,90.84
2017-11-18T04:45:42.329Z,90.94
2017-11-18T04:46:22.836Z,90.94
2017-11-18T04:47:03.444Z,90.84
2017-11-18T04:47:43.929Z,91.79
2017-11-18T04:48:24.608Z,91.41
2017-11-18T04:49:05.167Z,91.31
2017-11-18T04:49:45.768Z,91.22
2017-11-18T04:50:26.248Z,91.7
2017-11-18T04:51:06.786Z,91.51
2017-11-18T04:51:47.410Z,91.31
2017-11-18T04:52:27.944Z,91.7
2017-11-18T04:53:08.461Z,91.6
2017-11-18T04:53:49.018Z,91.22
2017-11-18T04:54:29.580Z,91.13
2017-11-18T04:55:10.081Z,91.13
2017-11-18T04:55:50.543Z,91.7
2017-11-18T04:56:31.176Z,91.22
2017-11-18T04:57:11.699Z,91.65
2017-11-18T04:57:52.228Z,92.22
2017-11-18T04:58:32.886Z,92.32
2017-11-18T04:59:13.399Z,92.03
2017-11-18T04:59:53.965Z,91.99
2017-11-18T05:00:34.534Z,91.75
2017-11-18T05:01:14.995Z,92.41
2017-11-18T05:01:55.533Z,92.79
2017-11-18T05:02:36.067Z,92.32
2017-11-18T05:03:16.638Z,91.94
2017-11-18T05:03:57.169Z,92.03
2017-11-18T05:04:37.865Z,92.27
2017-11-18T05:05:18.602Z,91.7
2017-11-18T05:05:59.127Z,91.99
2017-11-18T05:06:42.410Z,91.79
2017-11-18T05:07:22.909Z,91.6
2017-11-18T05:08:03.470Z,91.51
2017-11-18T05:08:43.995Z,91.22
2017-11-18T05:09:24.492Z,91.51
2017-11-18T05:10:05.070Z,91.31
2017-11-18T05:10:45.629Z,91.31
2017-11-18T05:11:26.112Z,91.79
2017-11-18T05:12:06.653Z,91.31
2017-11-18T05:12:47.225Z,91.51
2017-11-18T05:13:27.803Z,91.6
2017-11-18T05:14:08.355Z,91.6
2017-11-18T05:14:48.863Z,91.79
2017-11-18T05:15:29.430Z,92.08
2017-11-18T05:16:09.947Z,91.99
2017-11-18T05:16:50.510Z,91.6
2017-11-18T05:17:31.638Z,91.6
2017-11-18T05:18:12.110Z,91.7
2017-11-18T05:18:52.655Z,91.7
2017-11-18T05:19:33.273Z,91.79
2017-11-18T05:20:14.008Z,91.03
2017-11-18T05:20:54.538Z,91.22
2017-11-18T05:21:35.104Z,91.22
2017-11-18T05:22:15.594Z,91.31
2017-11-18T05:22:56.107Z,91.6
2017-11-18T05:23:36.693Z,91.51
2017-11-18T05:24:17.229Z,91.31
2017-11-18T05:24:57.734Z,91.22
2017-11-18T05:25:38.322Z,91.41
2017-11-18T05:26:18.879Z,91.51
2017-11-18T05:26:59.452Z,91.31
2017-11-18T05:27:39.987Z,91.03
2017-11-18T05:28:20.491Z,91.13
2017-11-18T05:29:01.049Z,91.03
2017-11-18T05:29:41.640Z,91.31
2017-11-18T05:30:22.168Z,91.7
2017-11-18T05:31:02.718Z,91.6
2017-11-18T05:31:43.243Z,91.51
2017-11-18T05:32:23.765Z,91.6
2017-11-18T05:33:07.673Z,91.31
2017-11-18T05:33:48.339Z,91.51
2017-11-18T05:34:28.842Z,91.51
2017-11-18T05:35:09.657Z,91.41
2017-11-18T05:35:50.197Z,91.31
2017-11-18T05:36:30.749Z,91.51
2017-11-18T05:37:11.291Z,91.13
2017-11-18T05:37:51.926Z,90.94
2017-11-18T05:38:32.471Z,90.75
2017-11-18T05:39:12.978Z,90.94
2017-11-18T05:39:53.554Z,91.41
2017-11-18T05:40:34.149Z,91.51
2017-11-18T05:41:14.686Z,91.13
2017-11-18T05:41:55.258Z,91.13
2017-11-18T05:42:35.790Z,91.41
2017-11-18T05:43:16.311Z,91.13
2017-11-18T05:43:57.142Z,90.94
2017-11-18T05:44:38.795Z,91.13
2017-11-18T05:45:19.489Z,90.65
2017-11-18T05:46:00.054Z,91.13
2017-11-18T05:46:40.538Z,90.94
2017-11-18T05:47:22.091Z,90.56
2017-11-18T05:48:02.652Z,91.13
2017-11-18T05:48:43.231Z,91.84
2017-11-18T05:49:23.788Z,91.79
2017-11-18T05:50:04.299Z,91.7
2017-11-18T05:50:44.823Z,91.51
2017-11-18T05:51:25.418Z,91.13
2017-11-18T05:52:06.200Z,91.51
2017-11-18T05:52:46.745Z,91.6
2017-11-18T05:53:27.275Z,91.7
2017-11-18T05:54:07.840Z,91.79
2017-11-18T05:54:48.456Z,91.79
2017-11-18T05:55:29.134Z,91.89
2017-11-18T05:56:09.784Z,91.7
2017-11-18T05:56:50.250Z,91.6
2017-11-18T05:57:30.962Z,91.51
2017-11-18T05:58:11.433Z,91.51
2017-11-18T05:58:51.959Z,91.22
2017-11-18T05:59:33.388Z,91.22
2017-11-18T06:00:13.880Z,91.13
2017-11-18T06:00:54.422Z,91.41
2017-11-18T06:01:35.148Z,90.75
2017-11-18T06:02:15.668Z,91.13
2017-11-18T06:02:56.187Z,91.31
2017-11-18T06:03:36.720Z,91.6
2017-11-18T06:04:17.239Z,91.6
2017-11-18T06:04:57.903Z,91.79
2017-11-18T06:05:38.475Z,91.51
2017-11-18T06:06:19.047Z,91.31
2017-11-18T06:06:59.588Z,91.65
2017-11-18T06:07:40.125Z,91.94
2017-11-18T06:08:20.621Z,91.79
2017-11-18T06:09:01.247Z,92.08
2017-11-18T06:09:41.700Z,91.94
2017-11-18T06:10:22.255Z,92.03
2017-11-18T06:11:02.782Z,92.03
2017-11-18T06:11:43.277Z,91.84
2017-11-18T06:12:23.822Z,92.79
2017-11-18T06:13:04.359Z,92.51
2017-11-18T06:13:45.036Z,92.99
2017-11-18T06:14:25.577Z,92.99
2017-11-18T06:15:06.101Z,93.08
2017-11-18T06:15:46.736Z,92.41
2017-11-18T06:16:27.266Z,92.6
2017-11-18T06:17:07.919Z,92.55
2017-11-18T06:17:48.473Z,92.46
2017-11-18T06:18:28.978Z,92.27
2017-11-18T06:19:09.541Z,92.27
2017-11-18T06:19:50.057Z,91.7
2017-11-18T06:20:30.684Z,91.99
2017-11-18T06:21:11.262Z,91.99
2017-11-18T06:21:52.136Z,92.03
2017-11-18T06:22:32.729Z,91.65
2017-11-18T06:23:13.528Z,92.79
2017-11-18T06:23:54.029Z,92.32
2017-11-18T06:24:35.262Z,92.41
2017-11-18T06:25:15.551Z,92.79
2017-11-18T06:25:56.048Z,92.6
2017-11-18T06:26:36.593Z,92.36
2017-11-18T06:27:17.133Z,92.08
2017-11-18T06:27:57.710Z,91.79
2017-11-18T06:28:38.208Z,91.79
2017-11-18T06:29:18.784Z,91.99
2017-11-18T06:29:59.329Z,92.27
2017-11-18T06:30:39.885Z,91.99
2017-11-18T06:31:20.405Z,91.94
2017-11-18T06:32:00.959Z,91.94
2017-11-18T06:32:41.472Z,92.74
2017-11-18T06:33:22.079Z,92.46
2017-11-18T06:34:02.682Z,91.99
2017-11-18T06:34:43.323Z,92.08
2017-11-18T06:35:23.880Z,91.79
2017-11-18T06:36:04.444Z,92.18
2017-11-18T06:36:45.024Z,92.27
2017-11-18T06:37:25.575Z,91.99
2017-11-18T06:38:06.086Z,91.79
2017-11-18T06:38:46.675Z,91.94
2017-11-18T06:39:27.223Z,92.6
2017-11-18T06:40:07.809Z,92.51
2017-11-18T06:40:48.336Z,92.51
2017-11-18T06:41:28.889Z,92.41
2017-11-18T06:42:09.437Z,92.55
2017-11-18T06:42:50.017Z,92.55
2017-11-18T06:43:30.551Z,92.84
2017-11-18T06:44:11.073Z,91.99
2017-11-18T06:44:51.534Z,92.08
2017-11-18T06:45:32.313Z,91.6
2017-11-18T06:46:12.879Z,91.56
2017-11-18T06:46:53.373Z,92.03
2017-11-18T06:47:33.969Z,92.36
2017-11-18T06:48:14.521Z,92.18
2017-11-18T06:48:55.086Z,92.27
2017-11-18T06:49:35.828Z,91.6
2017-11-18T06:50:16.387Z,91.7
2017-11-18T06:50:56.944Z,91.41
2017-11-18T06:51:37.517Z,91.13
2017-11-18T06:52:17.982Z,91.22
2017-11-18T06:52:58.629Z,91.31
2017-11-18T06:53:39.137Z,91.7
2017-11-18T06:54:19.701Z,91.41
2017-11-18T06:55:00.248Z,91.31
2017-11-18T06:55:40.807Z,91.22
2017-11-18T06:56:21.300Z,91.13
2017-11-18T06:57:01.943Z,91.51
2017-11-18T06:57:42.840Z,91.51
2017-11-18T06:58:23.526Z,91.51
2017-11-18T06:59:04.055Z,91.27
2017-11-18T06:59:44.612Z,91.7
2017-11-18T07:00:25.397Z,91.79
2017-11-18T07:02:25.773Z,91.79
2017-11-18T07:03:05.988Z,91.41
2017-11-18T07:03:46.550Z,91.31
2017-11-18T07:04:27.163Z,91.51
2017-11-18T07:05:08.007Z,91.41
2017-11-18T07:05:48.639Z,91.51
2017-11-18T07:06:29.292Z,91.31
2017-11-18T07:07:10.117Z,91.7
2017-11-18T07:07:50.595Z,91.51
2017-11-18T07:08:31.150Z,91.03
2017-11-18T07:09:12.686Z,91.22
2017-11-18T07:09:53.231Z,91.22
2017-11-18T07:10:33.828Z,90.94
2017-11-18T07:11:14.382Z,90.94
2017-11-18T07:11:54.994Z,90.84
2017-11-18T07:12:36.429Z,90.94
2017-11-18T07:13:16.957Z,90.84
2017-11-18T07:13:57.714Z,90.56
2017-11-18T07:14:39.024Z,91.65
2017-11-18T07:15:19.634Z,91.37
2017-11-18T07:16:00.104Z,92.13
2017-11-18T07:16:40.587Z,92.13
2017-11-18T07:17:21.213Z,91.99
2017-11-18T07:18:01.839Z,91.94
2017-11-18T07:18:43.249Z,91.65
2017-11-18T07:19:24.274Z,91.94
2017-11-18T07:20:04.736Z,91.56
2017-11-18T07:20:45.259Z,91.75
2017-11-18T07:21:26.011Z,92.13
2017-11-18T07:22:07.122Z,91.89
2017-11-18T07:22:48.211Z,91.75
2017-11-18T07:23:28.780Z,92.13
2017-11-18T07:24:09.307Z,91.75
2017-11-18T07:24:50.221Z,92.03
2017-11-18T07:25:31.125Z,92.41
2017-11-18T07:26:13.210Z,92.79
2017-11-18T07:26:54.007Z,92.41
2017-11-18T07:27:34.931Z,92.6
2017-11-18T07:28:15.644Z,92.79
2017-11-18T07:28:56.521Z,92.51
2017-11-18T07:29:37.040Z,92.89
2017-11-18T07:30:17.602Z,92.99
2017-11-18T07:30:58.249Z,92.99
2017-11-18T07:31:38.783Z,93.18
2017-11-18T07:32:19.423Z,93.74
2017-11-18T07:33:00.038Z,93.65
2017-11-18T07:33:40.566Z,93.27
2017-11-18T07:34:21.281Z,92.99
2017-11-18T07:35:01.807Z,93.27
2017-11-18T07:35:42.308Z,92.99
2017-11-18T07:36:22.770Z,92.6
2017-11-18T07:37:03.453Z,93.08
2017-11-18T07:37:45.542Z,92.99
2017-11-18T07:38:26.389Z,93.08
2017-11-18T07:39:07.181Z,93.27
2017-11-18T07:39:47.752Z,93.08
2017-11-18T07:40:28.364Z,92.6
2017-11-18T07:41:08.809Z,92.51
2017-11-18T07:41:49.339Z,92.6
2017-11-18T07:42:29.900Z,92.41
2017-11-18T07:43:10.579Z,92.51
2017-11-18T07:43:51.220Z,92.51
2017-11-18T07:44:31.937Z,92.6
2017-11-18T07:45:12.399Z,92.22
2017-11-18T07:45:52.971Z,92.46
2017-11-18T07:46:33.434Z,91.84
2017-11-18T07:47:14.010Z,91.84
2017-11-18T07:47:54.903Z,92.6
2017-11-18T07:48:35.150Z,92.41
2017-11-18T07:49:15.714Z,91.75
2017-11-18T07:49:56.223Z,92.7
2017-11-18T07:50:36.801Z,92.7
2017-11-18T07:51:17.445Z,92.6
2017-11-18T07:51:57.931Z,92.7
2017-11-18T07:52:38.534Z,92.6
2017-11-18T07:53:19.018Z,91.94
2017-11-18T07:53:59.588Z,92.03
2017-11-18T07:54:40.120Z,92.18
2017-11-18T07:55:20.661Z,92.27
2017-11-18T07:56:01.308Z,91.56
2017-11-18T07:56:42.060Z,91.75
2017-11-18T07:57:27.609Z,91.7
2017-11-18T07:58:08.169Z,91.89
2017-11-18T07:58:48.704Z,91.94
2017-11-18T07:59:29.331Z,92.27
2017-11-18T08:00:09.919Z,91.7
2017-11-18T08:00:50.403Z,91.31
2017-11-18T08:01:30.871Z,91.56
2017-11-18T08:02:11.783Z,91.7
2017-11-18T08:02:52.301Z,91.7
2017-11-18T08:03:32.834Z,91.13
2017-11-18T08:04:13.545Z,91.51
2017-11-18T08:04:54.084Z,91.13
2017-11-18T08:05:34.651Z,91.22
2017-11-18T08:06:15.212Z,91.27
2017-11-18T08:06:55.748Z,91.56
2017-11-18T08:07:36.332Z,92.13
2017-11-18T08:08:16.854Z,91.75
2017-11-18T08:08:57.405Z,92.13
2017-11-18T08:09:37.956Z,91.94
2017-11-18T08:10:18.497Z,92.6
2017-11-18T08:10:59.029Z,91.79
2017-11-18T08:11:39.610Z,91.65
2017-11-18T08:12:20.157Z,91.75
2017-11-18T08:13:00.762Z,91.56
2017-11-18T08:13:41.314Z,91.51
2017-11-18T08:14:22.078Z,91.31
2017-11-18T08:15:02.558Z,91.6
2017-11-18T08:15:43.115Z,90.94
2017-11-18T08:16:23.622Z,90.84
2017-11-18T08:17:04.371Z,91.03
2017-11-18T08:17:44.990Z,90.75
2017-11-18T08:18:25.695Z,90.94
2017-11-18T08:19:06.374Z,91.03
2017-11-18T08:19:47.293Z,90.94
2017-11-18T08:20:27.986Z,90.94
2017-11-18T08:21:08.510Z,90.84
2017-11-18T08:21:49.017Z,90.84
2017-11-18T08:22:29.917Z,91.03
2017-11-18T08:23:12.651Z,90.94
2017-11-18T08:23:53.589Z,90.75
2017-11-18T08:24:34.331Z,90.94
2017-11-18T08:25:15.177Z,90.84
2017-11-18T08:25:55.834Z,91.13
2017-11-18T08:26:36.369Z,90.94
2017-11-18T08:27:16.950Z,90.65
2017-11-18T08:27:57.471Z,90.08
2017-11-18T08:28:38.055Z,90.65
2017-11-18T08:29:18.552Z,90.56
2017-11-18T08:29:59.144Z,90.36
2017-11-18T08:30:39.687Z,90.65
2017-11-18T08:31:20.323Z,90.84
2017-11-18T08:32:01.122Z,90.27
2017-11-18T08:32:41.435Z,90.46
2017-11-18T08:33:22.285Z,90.17
2017-11-18T08:34:03.482Z,90.17
2017-11-18T08:34:44.068Z,90.36
2017-11-18T08:35:24.653Z,89.7
2017-11-18T08:36:05.171Z,90.17
2017-11-18T08:36:45.784Z,89.89
2017-11-18T08:37:26.807Z,89.7
2017-11-18T08:38:07.288Z,89.7
2017-11-18T08:38:48.029Z,90.36
2017-11-18T08:39:28.738Z,89.98
2017-11-18T08:40:09.605Z,90.27
2017-11-18T08:40:50.307Z,90.56
2017-11-18T08:41:30.861Z,89.98
2017-11-18T08:42:11.409Z,89.7
2017-11-18T08:42:51.952Z,90.17
2017-11-18T08:43:32.600Z,90.46
2017-11-18T08:44:13.231Z,90.08
2017-11-18T08:44:53.730Z,89.89
2017-11-18T08:45:34.275Z,89.98
2017-11-18T08:46:14.799Z,89.89
2017-11-18T08:46:55.542Z,89.46
2017-11-18T08:47:36.164Z,89.65
2017-11-18T08:48:16.700Z,89.13
2017-11-18T08:48:57.296Z,88.89